Big Rock, Iowa
Current Conditions -  °F | °C
As of 8:52 AM on Saturday 25 Oct 2014 (Local Time) from KDVN Reporting Station
Haze Haze  
Wind Chill: 51°   Ceiling: Unl
Heat Index: 51°   Visibility: 2.5mi
Dew Point: 50°   Wind: 7mph
Humidity: 96%   Direction: 320°NW
Pressure: 30.02"   Gusts: NA
Location:  41.7085°N, 90.7516°W
Report Text: KDVN 251352Z AUTO 32006KT 2 1/2SM BR SCT002 11/10 A3002 RMK AO2 SLP166 T01060100 TSNO
Loading
Personal Weather Stations






























Interactive Weather Map
Tropical Storm Tracking
New forecast layout! Learn more

10-Day Weather Forecast

Advertisements
Track Severe Weather on mobile